sensor_id;sensor_type;location;lat;lon;timestamp;P1;durP1;ratioP1;P2;durP2;ratioP2
17251;SDS011;8742;51.716;8.790;2024-01-30T00:00:06;15.27;;;8.87;;
17251;SDS011;8742;51.716;8.790;2024-01-30T00:02:34;14.43;;;7.53;;
17251;SDS011;8742;51.716;8.790;2024-01-30T00:05:01;16.83;;;8.13;;
17251;SDS011;8742;51.716;8.790;2024-01-30T00:07:28;17.00;;;8.13;;
17251;SDS011;8742;51.716;8.790;2024-01-30T00:09:55;11.40;;;7.33;;
17251;SDS011;8742;51.716;8.790;2024-01-30T00:12:23;13.00;;;7.63;;
17251;SDS011;8742;51.716;8.790;2024-01-30T00:14:51;12.23;;;7.57;;
17251;SDS011;8742;51.716;8.790;2024-01-30T00:17:18;14.53;;;7.73;;
17251;SDS011;8742;51.716;8.790;2024-01-30T00:19:45;15.87;;;8.53;;
17251;SDS011;8742;51.716;8.790;2024-01-30T00:22:11;13.60;;;8.27;;
17251;SDS011;8742;51.716;8.790;2024-01-30T00:24:38;17.87;;;8.30;;
17251;SDS011;8742;51.716;8.790;2024-01-30T00:27:05;17.50;;;8.50;;
17251;SDS011;8742;51.716;8.790;2024-01-30T00:29:33;14.23;;;8.43;;
17251;SDS011;8742;51.716;8.790;2024-01-30T00:32:00;15.00;;;8.30;;
17251;SDS011;8742;51.716;8.790;2024-01-30T00:34:27;13.73;;;8.20;;
17251;SDS011;8742;51.716;8.790;2024-01-30T00:36:54;14.37;;;8.43;;
17251;SDS011;8742;51.716;8.790;2024-01-30T00:39:21;15.17;;;8.40;;
17251;SDS011;8742;51.716;8.790;2024-01-30T00:41:48;14.20;;;8.13;;
17251;SDS011;8742;51.716;8.790;2024-01-30T00:44:15;15.63;;;7.70;;
17251;SDS011;8742;51.716;8.790;2024-01-30T00:46:43;15.93;;;8.23;;
17251;SDS011;8742;51.716;8.790;2024-01-30T00:49:10;13.73;;;7.77;;
17251;SDS011;8742;51.716;8.790;2024-01-30T00:51:37;15.33;;;8.80;;
17251;SDS011;8742;51.716;8.790;2024-01-30T00:54:04;18.20;;;9.30;;
17251;SDS011;8742;51.716;8.790;2024-01-30T00:56:31;17.67;;;8.47;;
17251;SDS011;8742;51.716;8.790;2024-01-30T00:58:58;15.80;;;9.40;;
17251;SDS011;8742;51.716;8.790;2024-01-30T01:01:25;12.70;;;7.30;;
17251;SDS011;8742;51.716;8.790;2024-01-30T01:03:53;22.03;;;9.40;;
17251;SDS011;8742;51.716;8.790;2024-01-30T01:06:20;14.30;;;8.87;;
17251;SDS011;8742;51.716;8.790;2024-01-30T01:08:47;19.93;;;8.83;;
17251;SDS011;8742;51.716;8.790;2024-01-30T01:11:13;15.70;;;9.30;;
17251;SDS011;8742;51.716;8.790;2024-01-30T01:13:40;20.07;;;9.03;;
17251;SDS011;8742;51.716;8.790;2024-01-30T01:16:07;18.27;;;9.27;;
17251;SDS011;8742;51.716;8.790;2024-01-30T01:18:34;16.00;;;9.10;;
17251;SDS011;8742;51.716;8.790;2024-01-30T01:21:02;19.10;;;9.67;;
17251;SDS011;8742;51.716;8.790;2024-01-30T01:23:29;17.43;;;8.77;;
17251;SDS011;8742;51.716;8.790;2024-01-30T01:25:56;16.90;;;9.10;;
17251;SDS011;8742;51.716;8.790;2024-01-30T01:28:24;14.30;;;8.80;;
17251;SDS011;8742;51.716;8.790;2024-01-30T01:30:52;15.23;;;8.50;;
17251;SDS011;8742;51.716;8.790;2024-01-30T01:33:24;16.93;;;8.30;;
17251;SDS011;8742;51.716;8.790;2024-01-30T01:35:50;17.40;;;9.27;;
17251;SDS011;8742;51.716;8.790;2024-01-30T01:38:19;17.00;;;9.23;;
17251;SDS011;8742;51.716;8.790;2024-01-30T01:40:46;13.23;;;8.93;;
17251;SDS011;8742;51.716;8.790;2024-01-30T01:43:13;17.83;;;9.50;;
17251;SDS011;8742;51.716;8.790;2024-01-30T01:45:40;17.87;;;9.70;;
17251;SDS011;8742;51.716;8.790;2024-01-30T01:48:07;16.33;;;8.93;;
17251;SDS011;8742;51.716;8.790;2024-01-30T01:50:34;17.87;;;9.40;;
17251;SDS011;8742;51.716;8.790;2024-01-30T01:53:02;16.70;;;9.30;;
17251;SDS011;8742;51.716;8.790;2024-01-30T01:55:32;17.50;;;8.97;;
17251;SDS011;8742;51.716;8.790;2024-01-30T01:58:00;18.07;;;9.83;;
17251;SDS011;8742;51.716;8.790;2024-01-30T02:00:27;17.10;;;10.20;;
17251;SDS011;8742;51.716;8.790;2024-01-30T02:02:54;17.53;;;9.00;;
17251;SDS011;8742;51.716;8.790;2024-01-30T02:05:22;18.13;;;8.57;;
17251;SDS011;8742;51.716;8.790;2024-01-30T02:07:50;16.57;;;9.00;;
17251;SDS011;8742;51.716;8.790;2024-01-30T02:10:17;19.60;;;9.27;;
17251;SDS011;8742;51.716;8.790;2024-01-30T02:12:45;17.00;;;8.83;;
17251;SDS011;8742;51.716;8.790;2024-01-30T02:15:13;15.87;;;9.40;;
17251;SDS011;8742;51.716;8.790;2024-01-30T02:17:40;18.20;;;8.53;;
17251;SDS011;8742;51.716;8.790;2024-01-30T02:20:07;19.90;;;9.33;;
17251;SDS011;8742;51.716;8.790;2024-01-30T02:22:36;15.27;;;9.27;;
17251;SDS011;8742;51.716;8.790;2024-01-30T02:25:04;18.80;;;9.03;;
17251;SDS011;8742;51.716;8.790;2024-01-30T02:27:31;14.70;;;8.93;;
17251;SDS011;8742;51.716;8.790;2024-01-30T02:29:58;16.40;;;9.30;;
17251;SDS011;8742;51.716;8.790;2024-01-30T02:32:25;17.97;;;10.13;;
17251;SDS011;8742;51.716;8.790;2024-01-30T02:34:53;17.13;;;8.87;;
17251;SDS011;8742;51.716;8.790;2024-01-30T02:37:20;18.73;;;8.97;;
17251;SDS011;8742;51.716;8.790;2024-01-30T02:39:48;16.77;;;9.10;;
17251;SDS011;8742;51.716;8.790;2024-01-30T02:42:15;18.90;;;9.33;;
17251;SDS011;8742;51.716;8.790;2024-01-30T02:44:41;17.03;;;9.03;;
17251;SDS011;8742;51.716;8.790;2024-01-30T02:47:08;15.97;;;8.80;;
17251;SDS011;8742;51.716;8.790;2024-01-30T02:49:35;20.97;;;8.90;;
17251;SDS011;8742;51.716;8.790;2024-01-30T02:52:02;15.50;;;8.80;;
17251;SDS011;8742;51.716;8.790;2024-01-30T02:54:29;15.10;;;8.50;;
17251;SDS011;8742;51.716;8.790;2024-01-30T02:56:57;18.77;;;8.97;;
17251;SDS011;8742;51.716;8.790;2024-01-30T02:59:24;17.70;;;8.43;;
17251;SDS011;8742;51.716;8.790;2024-01-30T03:01:51;15.30;;;8.97;;
17251;SDS011;8742;51.716;8.790;2024-01-30T03:04:18;12.57;;;8.40;;
17251;SDS011;8742;51.716;8.790;2024-01-30T03:06:45;18.20;;;8.80;;
17251;SDS011;8742;51.716;8.790;2024-01-30T03:09:13;18.13;;;9.07;;
17251;SDS011;8742;51.716;8.790;2024-01-30T03:11:39;13.53;;;8.40;;
17251;SDS011;8742;51.716;8.790;2024-01-30T03:14:08;14.27;;;8.30;;
17251;SDS011;8742;51.716;8.790;2024-01-30T03:16:36;17.23;;;9.33;;
17251;SDS011;8742;51.716;8.790;2024-01-30T03:19:03;13.73;;;8.60;;
17251;SDS011;8742;51.716;8.790;2024-01-30T03:21:30;14.87;;;8.83;;
17251;SDS011;8742;51.716;8.790;2024-01-30T03:23:57;16.27;;;8.93;;
17251;SDS011;8742;51.716;8.790;2024-01-30T03:26:24;15.00;;;9.17;;
17251;SDS011;8742;51.716;8.790;2024-01-30T03:28:51;14.63;;;8.50;;
17251;SDS011;8742;51.716;8.790;2024-01-30T03:31:19;12.83;;;8.60;;
17251;SDS011;8742;51.716;8.790;2024-01-30T03:33:46;21.03;;;8.30;;
17251;SDS011;8742;51.716;8.790;2024-01-30T03:36:14;15.23;;;7.93;;
17251;SDS011;8742;51.716;8.790;2024-01-30T03:38:41;13.07;;;8.17;;
17251;SDS011;8742;51.716;8.790;2024-01-30T03:41:08;13.83;;;7.17;;
17251;SDS011;8742;51.716;8.790;2024-01-30T03:43:35;11.97;;;7.83;;
17251;SDS011;8742;51.716;8.790;2024-01-30T03:46:02;16.77;;;7.57;;
17251;SDS011;8742;51.716;8.790;2024-01-30T03:48:31;13.57;;;8.10;;
17251;SDS011;8742;51.716;8.790;2024-01-30T03:50:58;16.47;;;9.03;;
17251;SDS011;8742;51.716;8.790;2024-01-30T03:53:24;15.00;;;8.40;;
17251;SDS011;8742;51.716;8.790;2024-01-30T03:55:51;15.73;;;7.73;;
17251;SDS011;8742;51.716;8.790;2024-01-30T03:58:18;18.70;;;7.97;;
17251;SDS011;8742;51.716;8.790;2024-01-30T04:00:45;16.00;;;8.40;;
17251;SDS011;8742;51.716;8.790;2024-01-30T04:03:12;14.37;;;7.40;;
17251;SDS011;8742;51.716;8.790;2024-01-30T04:05:40;11.93;;;7.80;;
17251;SDS011;8742;51.716;8.790;2024-01-30T04:08:07;15.83;;;7.83;;
17251;SDS011;8742;51.716;8.790;2024-01-30T04:10:34;13.03;;;8.07;;
17251;SDS011;8742;51.716;8.790;2024-01-30T04:13:01;13.43;;;8.10;;
17251;SDS011;8742;51.716;8.790;2024-01-30T04:15:27;20.43;;;8.63;;
17251;SDS011;8742;51.716;8.790;2024-01-30T04:17:57;18.67;;;7.97;;
17251;SDS011;8742;51.716;8.790;2024-01-30T04:20:24;12.90;;;7.67;;
17251;SDS011;8742;51.716;8.790;2024-01-30T04:22:52;14.07;;;7.60;;
17251;SDS011;8742;51.716;8.790;2024-01-30T04:25:19;14.87;;;7.50;;
17251;SDS011;8742;51.716;8.790;2024-01-30T04:27:46;12.57;;;7.03;;
17251;SDS011;8742;51.716;8.790;2024-01-30T04:30:13;14.87;;;7.93;;
17251;SDS011;8742;51.716;8.790;2024-01-30T04:32:39;14.33;;;7.87;;
17251;SDS011;8742;51.716;8.790;2024-01-30T04:35:06;13.70;;;7.77;;
17251;SDS011;8742;51.716;8.790;2024-01-30T04:37:33;14.13;;;7.93;;
17251;SDS011;8742;51.716;8.790;2024-01-30T04:40:02;14.27;;;7.53;;
17251;SDS011;8742;51.716;8.790;2024-01-30T04:42:29;13.77;;;7.47;;
17251;SDS011;8742;51.716;8.790;2024-01-30T04:44:56;12.27;;;7.40;;
17251;SDS011;8742;51.716;8.790;2024-01-30T04:47:22;12.97;;;7.50;;
17251;SDS011;8742;51.716;8.790;2024-01-30T04:49:51;14.30;;;7.50;;
17251;SDS011;8742;51.716;8.790;2024-01-30T04:52:18;13.87;;;7.17;;
17251;SDS011;8742;51.716;8.790;2024-01-30T04:54:45;14.03;;;7.30;;
17251;SDS011;8742;51.716;8.790;2024-01-30T04:57:13;12.17;;;7.40;;
17251;SDS011;8742;51.716;8.790;2024-01-30T04:59:39;11.47;;;7.37;;
17251;SDS011;8742;51.716;8.790;2024-01-30T05:02:06;13.73;;;7.37;;
17251;SDS011;8742;51.716;8.790;2024-01-30T05:04:33;14.90;;;7.30;;
17251;SDS011;8742;51.716;8.790;2024-01-30T05:07:00;13.17;;;7.30;;
17251;SDS011;8742;51.716;8.790;2024-01-30T05:09:27;13.97;;;7.40;;
17251;SDS011;8742;51.716;8.790;2024-01-30T05:11:54;18.67;;;8.40;;
17251;SDS011;8742;51.716;8.790;2024-01-30T05:14:22;18.23;;;7.80;;
17251;SDS011;8742;51.716;8.790;2024-01-30T05:16:49;15.93;;;7.67;;
17251;SDS011;8742;51.716;8.790;2024-01-30T05:19:16;13.47;;;7.07;;
17251;SDS011;8742;51.716;8.790;2024-01-30T05:21:43;14.10;;;7.33;;
17251;SDS011;8742;51.716;8.790;2024-01-30T05:24:10;11.60;;;7.27;;
17251;SDS011;8742;51.716;8.790;2024-01-30T05:26:36;10.80;;;7.00;;
17251;SDS011;8742;51.716;8.790;2024-01-30T05:29:04;13.00;;;6.70;;
17251;SDS011;8742;51.716;8.790;2024-01-30T05:31:34;12.97;;;7.07;;
17251;SDS011;8742;51.716;8.790;2024-01-30T05:34:01;16.50;;;7.57;;
17251;SDS011;8742;51.716;8.790;2024-01-30T05:36:27;12.50;;;7.60;;
17251;SDS011;8742;51.716;8.790;2024-01-30T05:38:55;12.40;;;7.00;;
17251;SDS011;8742;51.716;8.790;2024-01-30T05:41:22;13.03;;;7.03;;
17251;SDS011;8742;51.716;8.790;2024-01-30T05:43:49;15.20;;;7.17;;
17251;SDS011;8742;51.716;8.790;2024-01-30T05:46:16;14.00;;;7.90;;
17251;SDS011;8742;51.716;8.790;2024-01-30T05:48:44;13.10;;;7.07;;
17251;SDS011;8742;51.716;8.790;2024-01-30T05:51:11;15.87;;;7.07;;
17251;SDS011;8742;51.716;8.790;2024-01-30T05:53:38;15.60;;;6.63;;
17251;SDS011;8742;51.716;8.790;2024-01-30T05:56:05;14.17;;;7.60;;
17251;SDS011;8742;51.716;8.790;2024-01-30T05:58:32;15.07;;;7.50;;
17251;SDS011;8742;51.716;8.790;2024-01-30T06:00:59;13.30;;;6.70;;
17251;SDS011;8742;51.716;8.790;2024-01-30T06:03:26;16.27;;;7.37;;
17251;SDS011;8742;51.716;8.790;2024-01-30T06:05:54;16.37;;;7.63;;
17251;SDS011;8742;51.716;8.790;2024-01-30T06:08:21;13.87;;;6.87;;
17251;SDS011;8742;51.716;8.790;2024-01-30T06:10:48;17.57;;;6.53;;
17251;SDS011;8742;51.716;8.790;2024-01-30T06:13:14;11.50;;;6.23;;
17251;SDS011;8742;51.716;8.790;2024-01-30T06:15:41;9.37;;;6.50;;
17251;SDS011;8742;51.716;8.790;2024-01-30T06:18:08;14.03;;;6.93;;
17251;SDS011;8742;51.716;8.790;2024-01-30T06:20:35;14.37;;;6.77;;
17251;SDS011;8742;51.716;8.790;2024-01-30T06:23:03;10.90;;;6.90;;
17251;SDS011;8742;51.716;8.790;2024-01-30T06:25:30;11.30;;;6.83;;
17251;SDS011;8742;51.716;8.790;2024-01-30T06:27:57;16.40;;;7.47;;
17251;SDS011;8742;51.716;8.790;2024-01-30T06:30:24;11.90;;;6.83;;
17251;SDS011;8742;51.716;8.790;2024-01-30T06:32:50;13.30;;;6.50;;
17251;SDS011;8742;51.716;8.790;2024-01-30T06:35:17;10.43;;;6.17;;
17251;SDS011;8742;51.716;8.790;2024-01-30T06:37:44;9.87;;;6.33;;
17251;SDS011;8742;51.716;8.790;2024-01-30T06:40:13;11.00;;;5.60;;
17251;SDS011;8742;51.716;8.790;2024-01-30T06:42:40;12.53;;;6.97;;
17251;SDS011;8742;51.716;8.790;2024-01-30T06:45:07;10.73;;;6.63;;
17251;SDS011;8742;51.716;8.790;2024-01-30T06:47:34;12.23;;;6.50;;
17251;SDS011;8742;51.716;8.790;2024-01-30T06:50:01;10.47;;;6.03;;
17251;SDS011;8742;51.716;8.790;2024-01-30T06:52:28;12.40;;;6.03;;
17251;SDS011;8742;51.716;8.790;2024-01-30T06:54:55;10.53;;;5.50;;
17251;SDS011;8742;51.716;8.790;2024-01-30T06:57:23;11.97;;;5.97;;
17251;SDS011;8742;51.716;8.790;2024-01-30T06:59:52;11.73;;;6.13;;
17251;SDS011;8742;51.716;8.790;2024-01-30T07:02:21;13.07;;;6.53;;
17251;SDS011;8742;51.716;8.790;2024-01-30T07:04:48;12.50;;;6.80;;
17251;SDS011;8742;51.716;8.790;2024-01-30T07:07:15;13.13;;;7.07;;
17251;SDS011;8742;51.716;8.790;2024-01-30T07:09:42;13.93;;;7.03;;
17251;SDS011;8742;51.716;8.790;2024-01-30T07:12:09;17.33;;;7.07;;
17251;SDS011;8742;51.716;8.790;2024-01-30T07:14:38;12.37;;;7.17;;
17251;SDS011;8742;51.716;8.790;2024-01-30T07:17:05;13.63;;;6.27;;
17251;SDS011;8742;51.716;8.790;2024-01-30T07:19:32;10.07;;;6.73;;
17251;SDS011;8742;51.716;8.790;2024-01-30T07:22:00;16.40;;;7.13;;
17251;SDS011;8742;51.716;8.790;2024-01-30T07:24:27;9.97;;;6.30;;
17251;SDS011;8742;51.716;8.790;2024-01-30T07:26:53;12.53;;;6.70;;
17251;SDS011;8742;51.716;8.790;2024-01-30T07:29:20;8.03;;;5.90;;
17251;SDS011;8742;51.716;8.790;2024-01-30T07:31:48;13.53;;;6.33;;
17251;SDS011;8742;51.716;8.790;2024-01-30T07:34:15;9.63;;;6.70;;
17251;SDS011;8742;51.716;8.790;2024-01-30T07:36:42;12.90;;;6.37;;
17251;SDS011;8742;51.716;8.790;2024-01-30T07:39:09;14.23;;;6.63;;
17251;SDS011;8742;51.716;8.790;2024-01-30T07:41:36;12.93;;;6.83;;
17251;SDS011;8742;51.716;8.790;2024-01-30T07:44:03;10.57;;;6.23;;
17251;SDS011;8742;51.716;8.790;2024-01-30T07:46:30;16.83;;;6.57;;
17251;SDS011;8742;51.716;8.790;2024-01-30T07:48:58;12.20;;;6.80;;
17251;SDS011;8742;51.716;8.790;2024-01-30T07:51:25;11.73;;;6.47;;
17251;SDS011;8742;51.716;8.790;2024-01-30T07:53:53;12.33;;;7.03;;
17251;SDS011;8742;51.716;8.790;2024-01-30T07:56:20;10.03;;;6.10;;
17251;SDS011;8742;51.716;8.790;2024-01-30T07:58:47;11.90;;;6.47;;
17251;SDS011;8742;51.716;8.790;2024-01-30T08:01:14;13.00;;;6.47;;
17251;SDS011;8742;51.716;8.790;2024-01-30T08:03:41;11.87;;;6.50;;
17251;SDS011;8742;51.716;8.790;2024-01-30T08:06:10;12.83;;;6.57;;
17251;SDS011;8742;51.716;8.790;2024-01-30T08:08:36;12.87;;;6.83;;
17251;SDS011;8742;51.716;8.790;2024-01-30T08:11:03;13.10;;;7.00;;
17251;SDS011;8742;51.716;8.790;2024-01-30T08:13:30;15.47;;;6.70;;
17251;SDS011;8742;51.716;8.790;2024-01-30T08:15:57;10.77;;;6.23;;
17251;SDS011;8742;51.716;8.790;2024-01-30T08:18:24;11.03;;;6.43;;
17251;SDS011;8742;51.716;8.790;2024-01-30T08:20:51;13.57;;;6.63;;
17251;SDS011;8742;51.716;8.790;2024-01-30T08:23:19;16.03;;;7.27;;
17251;SDS011;8742;51.716;8.790;2024-01-30T08:25:46;12.17;;;6.73;;
17251;SDS011;8742;51.716;8.790;2024-01-30T08:28:13;10.87;;;6.50;;
17251;SDS011;8742;51.716;8.790;2024-01-30T08:30:40;13.47;;;7.00;;
17251;SDS011;8742;51.716;8.790;2024-01-30T08:33:06;14.73;;;7.13;;
17251;SDS011;8742;51.716;8.790;2024-01-30T08:35:33;10.67;;;6.60;;
17251;SDS011;8742;51.716;8.790;2024-01-30T08:38:00;10.77;;;5.73;;
17251;SDS011;8742;51.716;8.790;2024-01-30T08:40:29;14.07;;;6.77;;
17251;SDS011;8742;51.716;8.790;2024-01-30T08:42:56;13.60;;;6.67;;
17251;SDS011;8742;51.716;8.790;2024-01-30T08:45:23;15.53;;;7.10;;
17251;SDS011;8742;51.716;8.790;2024-01-30T08:47:50;11.07;;;6.57;;
17251;SDS011;8742;51.716;8.790;2024-01-30T08:50:17;9.60;;;6.07;;
17251;SDS011;8742;51.716;8.790;2024-01-30T08:52:44;12.43;;;6.93;;
17251;SDS011;8742;51.716;8.790;2024-01-30T08:55:10;11.47;;;6.37;;
17251;SDS011;8742;51.716;8.790;2024-01-30T08:57:39;11.90;;;6.43;;
17251;SDS011;8742;51.716;8.790;2024-01-30T09:00:06;9.87;;;6.43;;
17251;SDS011;8742;51.716;8.790;2024-01-30T09:02:34;10.80;;;6.50;;
17251;SDS011;8742;51.716;8.790;2024-01-30T09:05:01;11.90;;;6.37;;
17251;SDS011;8742;51.716;8.790;2024-01-30T09:07:28;10.83;;;6.47;;
17251;SDS011;8742;51.716;8.790;2024-01-30T09:09:55;13.43;;;7.63;;
17251;SDS011;8742;51.716;8.790;2024-01-30T09:12:22;12.07;;;6.43;;
17251;SDS011;8742;51.716;8.790;2024-01-30T09:14:50;14.40;;;6.90;;
17251;SDS011;8742;51.716;8.790;2024-01-30T09:17:17;13.20;;;7.27;;
17251;SDS011;8742;51.716;8.790;2024-01-30T09:19:45;12.93;;;7.87;;
17251;SDS011;8742;51.716;8.790;2024-01-30T09:22:12;15.90;;;7.83;;
17251;SDS011;8742;51.716;8.790;2024-01-30T09:24:39;17.77;;;7.67;;
17251;SDS011;8742;51.716;8.790;2024-01-30T09:27:06;11.67;;;7.03;;
17251;SDS011;8742;51.716;8.790;2024-01-30T09:29:33;16.27;;;8.27;;
17251;SDS011;8742;51.716;8.790;2024-01-30T09:32:03;13.10;;;6.97;;
17251;SDS011;8742;51.716;8.790;2024-01-30T09:34:31;14.07;;;7.53;;
17251;SDS011;8742;51.716;8.790;2024-01-30T09:36:58;15.77;;;7.77;;
17251;SDS011;8742;51.716;8.790;2024-01-30T09:39:24;12.53;;;7.20;;
17251;SDS011;8742;51.716;8.790;2024-01-30T09:41:59;11.33;;;7.10;;
17251;SDS011;8742;51.716;8.790;2024-01-30T09:44:31;12.47;;;7.70;;
17251;SDS011;8742;51.716;8.790;2024-01-30T09:47:02;12.23;;;7.60;;
17251;SDS011;8742;51.716;8.790;2024-01-30T09:49:31;9.70;;;6.30;;
17251;SDS011;8742;51.716;8.790;2024-01-30T09:51:58;12.93;;;6.77;;
17251;SDS011;8742;51.716;8.790;2024-01-30T09:54:25;10.83;;;7.23;;
17251;SDS011;8742;51.716;8.790;2024-01-30T09:56:52;12.40;;;6.83;;
17251;SDS011;8742;51.716;8.790;2024-01-30T09:59:19;9.90;;;7.20;;
17251;SDS011;8742;51.716;8.790;2024-01-30T10:01:46;13.53;;;6.87;;
17251;SDS011;8742;51.716;8.790;2024-01-30T10:04:13;11.47;;;6.80;;
17251;SDS011;8742;51.716;8.790;2024-01-30T10:06:40;11.93;;;6.50;;
17251;SDS011;8742;51.716;8.790;2024-01-30T10:09:07;11.40;;;6.90;;
17251;SDS011;8742;51.716;8.790;2024-01-30T10:11:34;9.90;;;6.53;;
17251;SDS011;8742;51.716;8.790;2024-01-30T10:14:02;13.57;;;6.50;;
17251;SDS011;8742;51.716;8.790;2024-01-30T10:16:29;14.30;;;6.80;;
17251;SDS011;8742;51.716;8.790;2024-01-30T10:18:56;11.30;;;6.80;;
17251;SDS011;8742;51.716;8.790;2024-01-30T10:21:24;9.63;;;6.10;;
17251;SDS011;8742;51.716;8.790;2024-01-30T10:23:51;11.07;;;7.07;;
17251;SDS011;8742;51.716;8.790;2024-01-30T10:26:18;9.73;;;6.60;;
17251;SDS011;8742;51.716;8.790;2024-01-30T10:28:45;9.17;;;5.77;;
17251;SDS011;8742;51.716;8.790;2024-01-30T10:31:16;10.33;;;6.37;;
17251;SDS011;8742;51.716;8.790;2024-01-30T10:33:43;9.57;;;6.47;;
17251;SDS011;8742;51.716;8.790;2024-01-30T10:36:10;11.23;;;6.40;;
17251;SDS011;8742;51.716;8.790;2024-01-30T10:38:42;14.17;;;6.70;;
17251;SDS011;8742;51.716;8.790;2024-01-30T10:41:11;10.60;;;6.70;;
17251;SDS011;8742;51.716;8.790;2024-01-30T10:43:41;8.90;;;6.30;;
17251;SDS011;8742;51.716;8.790;2024-01-30T10:46:15;10.53;;;6.00;;
17251;SDS011;8742;51.716;8.790;2024-01-30T10:48:49;12.83;;;7.00;;
17251;SDS011;8742;51.716;8.790;2024-01-30T10:51:22;13.67;;;6.90;;
17251;SDS011;8742;51.716;8.790;2024-01-30T10:53:51;11.50;;;7.23;;
17251;SDS011;8742;51.716;8.790;2024-01-30T10:56:19;9.17;;;6.13;;
17251;SDS011;8742;51.716;8.790;2024-01-30T10:58:48;16.00;;;7.07;;
17251;SDS011;8742;51.716;8.790;2024-01-30T11:01:16;13.37;;;7.30;;
17251;SDS011;8742;51.716;8.790;2024-01-30T11:03:43;11.97;;;7.00;;
17251;SDS011;8742;51.716;8.790;2024-01-30T11:06:11;11.00;;;6.90;;
17251;SDS011;8742;51.716;8.790;2024-01-30T11:08:39;11.50;;;7.20;;
17251;SDS011;8742;51.716;8.790;2024-01-30T11:11:09;13.47;;;7.40;;
17251;SDS011;8742;51.716;8.790;2024-01-30T11:13:36;11.67;;;6.90;;
17251;SDS011;8742;51.716;8.790;2024-01-30T11:16:03;9.90;;;6.30;;
17251;SDS011;8742;51.716;8.790;2024-01-30T11:18:31;10.73;;;7.00;;
17251;SDS011;8742;51.716;8.790;2024-01-30T11:20:59;11.87;;;6.77;;
17251;SDS011;8742;51.716;8.790;2024-01-30T11:23:27;12.10;;;7.17;;
17251;SDS011;8742;51.716;8.790;2024-01-30T11:25:55;9.57;;;6.07;;
17251;SDS011;8742;51.716;8.790;2024-01-30T11:28:24;8.83;;;6.27;;
17251;SDS011;8742;51.716;8.790;2024-01-30T11:31:02;9.37;;;6.10;;
17251;SDS011;8742;51.716;8.790;2024-01-30T11:33:30;11.33;;;5.93;;
17251;SDS011;8742;51.716;8.790;2024-01-30T11:35:58;11.27;;;6.33;;
17251;SDS011;8742;51.716;8.790;2024-01-30T11:38:25;13.30;;;5.73;;
17251;SDS011;8742;51.716;8.790;2024-01-30T11:40:53;7.27;;;5.60;;
17251;SDS011;8742;51.716;8.790;2024-01-30T11:43:21;9.03;;;5.73;;
17251;SDS011;8742;51.716;8.790;2024-01-30T11:45:49;10.20;;;5.23;;
17251;SDS011;8742;51.716;8.790;2024-01-30T11:48:17;9.33;;;5.87;;
17251;SDS011;8742;51.716;8.790;2024-01-30T11:50:44;8.53;;;5.80;;
17251;SDS011;8742;51.716;8.790;2024-01-30T11:53:10;8.50;;;5.40;;
17251;SDS011;8742;51.716;8.790;2024-01-30T11:55:37;8.57;;;6.17;;
17251;SDS011;8742;51.716;8.790;2024-01-30T11:58:04;11.47;;;6.63;;
17251;SDS011;8742;51.716;8.790;2024-01-30T12:00:31;11.93;;;6.20;;
17251;SDS011;8742;51.716;8.790;2024-01-30T12:03:00;9.80;;;6.17;;
17251;SDS011;8742;51.716;8.790;2024-01-30T12:05:28;12.30;;;5.83;;
17251;SDS011;8742;51.716;8.790;2024-01-30T12:07:55;11.27;;;6.53;;
17251;SDS011;8742;51.716;8.790;2024-01-30T12:10:23;12.60;;;6.17;;
17251;SDS011;8742;51.716;8.790;2024-01-30T12:12:51;13.47;;;6.13;;
17251;SDS011;8742;51.716;8.790;2024-01-30T12:15:18;11.80;;;6.53;;
17251;SDS011;8742;51.716;8.790;2024-01-30T12:17:47;12.10;;;6.00;;
17251;SDS011;8742;51.716;8.790;2024-01-30T12:20:17;12.67;;;6.03;;
17251;SDS011;8742;51.716;8.790;2024-01-30T12:22:45;10.30;;;6.40;;
17251;SDS011;8742;51.716;8.790;2024-01-30T12:25:14;11.60;;;6.63;;
17251;SDS011;8742;51.716;8.790;2024-01-30T12:27:42;18.00;;;6.70;;
17251;SDS011;8742;51.716;8.790;2024-01-30T12:30:10;10.73;;;6.23;;
17251;SDS011;8742;51.716;8.790;2024-01-30T12:32:39;15.40;;;6.13;;
17251;SDS011;8742;51.716;8.790;2024-01-30T12:35:07;12.90;;;6.90;;
17251;SDS011;8742;51.716;8.790;2024-01-30T12:37:36;7.57;;;5.03;;
17251;SDS011;8742;51.716;8.790;2024-01-30T12:40:03;12.13;;;5.10;;
17251;SDS011;8742;51.716;8.790;2024-01-30T12:42:32;8.87;;;4.97;;
17251;SDS011;8742;51.716;8.790;2024-01-30T12:44:59;10.50;;;3.73;;
17251;SDS011;8742;51.716;8.790;2024-01-30T12:47:26;7.90;;;3.90;;
17251;SDS011;8742;51.716;8.790;2024-01-30T12:49:53;10.53;;;4.00;;
17251;SDS011;8742;51.716;8.790;2024-01-30T12:52:21;8.30;;;3.93;;
17251;SDS011;8742;51.716;8.790;2024-01-30T12:54:49;9.73;;;4.77;;
17251;SDS011;8742;51.716;8.790;2024-01-30T12:57:17;7.50;;;3.60;;
17251;SDS011;8742;51.716;8.790;2024-01-30T12:59:44;11.97;;;4.67;;
17251;SDS011;8742;51.716;8.790;2024-01-30T13:02:12;11.37;;;4.23;;
17251;SDS011;8742;51.716;8.790;2024-01-30T13:04:39;7.20;;;4.30;;
17251;SDS011;8742;51.716;8.790;2024-01-30T13:07:06;7.90;;;4.20;;
17251;SDS011;8742;51.716;8.790;2024-01-30T13:09:33;12.47;;;4.90;;
17251;SDS011;8742;51.716;8.790;2024-01-30T13:12:01;9.17;;;4.57;;
17251;SDS011;8742;51.716;8.790;2024-01-30T13:14:29;8.73;;;4.07;;
17251;SDS011;8742;51.716;8.790;2024-01-30T13:16:55;7.77;;;4.07;;
17251;SDS011;8742;51.716;8.790;2024-01-30T13:19:22;8.30;;;4.43;;
17251;SDS011;8742;51.716;8.790;2024-01-30T13:21:49;8.87;;;4.37;;
17251;SDS011;8742;51.716;8.790;2024-01-30T13:24:16;7.80;;;4.73;;
17251;SDS011;8742;51.716;8.790;2024-01-30T13:26:46;7.07;;;4.50;;
17251;SDS011;8742;51.716;8.790;2024-01-30T13:29:14;10.90;;;3.97;;
17251;SDS011;8742;51.716;8.790;2024-01-30T13:31:41;10.17;;;4.13;;
17251;SDS011;8742;51.716;8.790;2024-01-30T13:34:09;5.73;;;3.93;;
17251;SDS011;8742;51.716;8.790;2024-01-30T13:36:36;8.87;;;4.50;;
17251;SDS011;8742;51.716;8.790;2024-01-30T13:39:03;9.00;;;4.33;;
17251;SDS011;8742;51.716;8.790;2024-01-30T13:41:35;11.60;;;4.20;;
17251;SDS011;8742;51.716;8.790;2024-01-30T13:44:01;5.37;;;3.87;;
17251;SDS011;8742;51.716;8.790;2024-01-30T13:46:30;9.10;;;4.40;;
17251;SDS011;8742;51.716;8.790;2024-01-30T13:48:57;13.37;;;4.57;;
17251;SDS011;8742;51.716;8.790;2024-01-30T13:51:24;10.83;;;4.80;;
17251;SDS011;8742;51.716;8.790;2024-01-30T13:53:51;8.53;;;4.70;;
17251;SDS011;8742;51.716;8.790;2024-01-30T13:56:19;7.33;;;4.43;;
17251;SDS011;8742;51.716;8.790;2024-01-30T13:58:47;10.53;;;4.47;;
17251;SDS011;8742;51.716;8.790;2024-01-30T14:01:14;11.47;;;5.23;;
17251;SDS011;8742;51.716;8.790;2024-01-30T14:03:43;26.70;;;13.90;;
17251;SDS011;8742;51.716;8.790;2024-01-30T14:06:09;17.87;;;9.20;;
17251;SDS011;8742;51.716;8.790;2024-01-30T14:08:36;20.47;;;8.57;;
17251;SDS011;8742;51.716;8.790;2024-01-30T14:11:03;32.97;;;17.40;;
17251;SDS011;8742;51.716;8.790;2024-01-30T14:13:31;12.83;;;5.53;;
17251;SDS011;8742;51.716;8.790;2024-01-30T14:15:58;14.77;;;5.40;;
17251;SDS011;8742;51.716;8.790;2024-01-30T14:18:25;15.23;;;8.30;;
17251;SDS011;8742;51.716;8.790;2024-01-30T14:20:53;11.23;;;5.07;;
17251;SDS011;8742;51.716;8.790;2024-01-30T14:23:20;18.53;;;5.27;;
17251;SDS011;8742;51.716;8.790;2024-01-30T14:25:47;11.80;;;6.57;;
17251;SDS011;8742;51.716;8.790;2024-01-30T14:28:16;12.93;;;6.67;;
17251;SDS011;8742;51.716;8.790;2024-01-30T14:30:43;13.97;;;6.40;;
17251;SDS011;8742;51.716;8.790;2024-01-30T14:33:10;12.53;;;6.20;;
17251;SDS011;8742;51.716;8.790;2024-01-30T14:35:36;12.87;;;5.77;;
17251;SDS011;8742;51.716;8.790;2024-01-30T14:38:05;12.43;;;5.60;;
17251;SDS011;8742;51.716;8.790;2024-01-30T14:40:32;11.00;;;6.33;;
17251;SDS011;8742;51.716;8.790;2024-01-30T14:42:59;12.13;;;5.70;;
17251;SDS011;8742;51.716;8.790;2024-01-30T14:45:26;10.97;;;5.33;;
17251;SDS011;8742;51.716;8.790;2024-01-30T14:47:53;11.60;;;5.67;;
17251;SDS011;8742;51.716;8.790;2024-01-30T14:50:20;12.40;;;5.27;;